Time;durP1;ratioP1;P1;durP2;ratioP2;P2;SDS_P1;SDS_P2;PMS_P1;PMS_P2;Temp;Humidity;BMP_temperature;BMP_pressure;BME280_temperature;BME280_humidity;BME280_pressure;Samples;Min_cycle;Max_cycle;Signal;HPM_P1;HPM_P2
2023/05/03 00:00:09;;;;;;;2.00;1.20;;;13.70;42.10;;;;;;5044108;28;20175;-69
2023/05/03 00:02:38;;;;;;;3.07;1.77;;;13.50;41.40;;;;;;5048047;28;20762;-69
2023/05/03 00:05:05;;;;;;;3.93;1.97;;;13.80;42.70;;;;;;5040345;28;20521;-69
2023/05/03 00:07:30;;;;;;;2.10;1.20;;;13.20;42.50;;;;;;5050286;28;20516;-69
2023/05/03 00:09:56;;;;;;;130.20;3.50;;;13.20;40.80;;;;;;5050858;28;20239;-70
2023/05/03 00:12:21;;;;;;;2.40;1.50;;;13.20;41.80;;;;;;5043569;28;20190;-68
2023/05/03 00:14:47;;;;;;;2.07;1.40;;;13.30;41.70;;;;;;5043555;28;20267;-69
2023/05/03 00:17:13;;;;;;;2.53;1.50;;;13.20;41.00;;;;;;5034256;28;20243;-69
2023/05/03 00:19:38;;;;;;;2.10;1.30;;;13.20;42.10;;;;;;5040046;28;20192;-69
2023/05/03 00:22:04;;;;;;;2.20;1.40;;;13.30;41.30;;;;;;5047552;28;20180;-70
2023/05/03 00:24:30;;;;;;;2.00;1.30;;;13.20;41.90;;;;;;5048298;28;20859;-69
2023/05/03 00:26:55;;;;;;;2.43;1.43;;;13.60;41.60;;;;;;5037934;28;20186;-69
2023/05/03 00:29:21;;;;;;;2.17;1.30;;;13.10;41.80;;;;;;5031750;28;20176;-69
2023/05/03 00:31:47;;;;;;;2.30;1.30;;;13.30;41.50;;;;;;5041845;28;20195;-69
2023/05/03 00:34:13;;;;;;;3.60;2.30;;;13.30;42.60;;;;;;5049315;28;20452;-70
2023/05/03 00:36:38;;;;;;;2.30;1.30;;;13.10;41.20;;;;;;5042932;28;20520;-69
2023/05/03 00:39:04;;;;;;;3.57;1.60;;;13.10;41.40;;;;;;5050626;28;20196;-69
2023/05/03 00:41:30;;;;;;;2.40;1.53;;;13.30;42.20;;;;;;5051085;28;20409;-69
2023/05/03 00:43:55;;;;;;;2.50;1.50;;;12.90;42.10;;;;;;5044947;28;20591;-67
2023/05/03 00:46:21;;;;;;;2.10;1.20;;;13.40;42.90;;;;;;5050583;28;20334;-69
2023/05/03 00:48:50;;;;;;;2.90;1.60;;;13.00;41.80;;;;;;5031250;28;20230;-69
2023/05/03 00:51:17;;;;;;;4.60;2.73;;;13.10;42.10;;;;;;5031475;28;20199;-67
2023/05/03 00:53:43;;;;;;;3.37;1.67;;;13.10;41.90;;;;;;5045884;28;20512;-70
2023/05/03 00:56:12;;;;;;;2.73;1.80;;;12.90;41.60;;;;;;5049774;28;20942;-69
2023/05/03 00:58:39;;;;;;;2.10;1.23;;;13.20;42.50;;;;;;5042339;28;20458;-69
2023/05/03 01:01:07;;;;;;;2.20;1.40;;;12.80;42.30;;;;;;5043921;28;20435;-68
2023/05/03 01:03:36;;;;;;;2.20;1.30;;;13.10;42.40;;;;;;5048068;28;20430;-69
2023/05/03 01:06:17;;;;;;;2.03;1.10;;;12.90;41.80;;;;;;5049629;28;20434;-69
2023/05/03 01:09:12;;;;;;;3.00;1.60;;;12.80;41.20;;;;;;5041611;28;20446;-69
2023/05/03 01:11:51;;;;;;;2.10;1.10;;;12.80;42.20;;;;;;5051002;28;20435;-68
2023/05/03 01:14:59;;;;;;;2.13;1.30;;;12.80;41.80;;;;;;5049887;28;20190;-69
2023/05/03 01:17:34;;;;;;;2.27;1.30;;;12.80;41.80;;;;;;5043234;28;20492;-69
2023/05/03 01:20:04;;;;;;;7.40;1.70;;;13.10;41.60;;;;;;5047409;28;20430;-68
2023/05/03 01:22:57;;;;;;;2.60;1.80;;;12.80;41.70;;;;;;5051215;28;20425;-67
2023/05/03 01:25:22;;;;;;;2.20;1.30;;;12.70;42.10;;;;;;5050663;28;20217;-69
2023/05/03 01:27:48;;;;;;;2.93;1.60;;;13.10;42.70;;;;;;5044062;28;21035;-68
2023/05/03 01:30:15;;;;;;;2.30;1.50;;;12.70;43.00;;;;;;5049924;28;20230;-69
2023/05/03 01:32:50;;;;;;;4.50;1.63;;;12.80;43.20;;;;;;5047400;28;20749;-70
2023/05/03 01:35:36;;;;;;;3.95;1.52;;;12.70;42.10;;;;;;5048910;28;20898;-69
2023/05/03 01:38:03;;;;;;;2.40;1.52;;;12.70;42.40;;;;;;5048574;28;20215;-68
2023/05/03 01:40:29;;;;;;;2.50;1.53;;;12.60;43.00;;;;;;5050889;28;20318;-69
2023/05/03 01:42:56;;;;;;;2.10;1.20;;;12.60;42.50;;;;;;5038052;28;20496;-70
2023/05/03 01:45:22;;;;;;;2.50;1.60;;;12.60;42.20;;;;;;5040794;28;20548;-70
2023/05/03 01:47:47;;;;;;;4.60;2.30;;;12.60;42.50;;;;;;5047855;28;20430;-69
2023/05/03 01:50:13;;;;;;;2.40;1.40;;;12.50;43.00;;;;;;5044672;28;20183;-68
2023/05/03 01:52:39;;;;;;;2.30;1.50;;;12.40;42.80;;;;;;5044054;28;20206;-69
2023/05/03 01:55:05;;;;;;;2.40;1.50;;;12.50;42.60;;;;;;5052846;28;20187;-68
2023/05/03 01:57:31;;;;;;;2.90;1.70;;;12.40;42.80;;;;;;5052451;28;20754;-69
2023/05/03 01:59:56;;;;;;;2.40;1.23;;;12.50;42.80;;;;;;5053205;28;20505;-69
2023/05/03 02:02:22;;;;;;;2.40;1.43;;;12.40;42.30;;;;;;5054561;28;20261;-69
2023/05/03 02:04:48;;;;;;;2.10;1.20;;;12.30;42.70;;;;;;5052988;28;20182;-67
2023/05/03 02:07:13;;;;;;;3.30;1.80;;;12.30;42.70;;;;;;5051946;28;20249;-68
2023/05/03 02:09:39;;;;;;;2.30;1.20;;;12.30;42.20;;;;;;5054092;28;20183;-67
2023/05/03 02:12:05;;;;;;;2.60;1.40;;;12.20;42.70;;;;;;5054268;28;20194;-69
2023/05/03 02:14:31;;;;;;;2.78;1.70;;;12.10;42.70;;;;;;5053705;28;20187;-67
2023/05/03 02:16:57;;;;;;;2.13;1.10;;;12.10;43.00;;;;;;5051290;28;20272;-67
2023/05/03 02:19:23;;;;;;;2.20;1.20;;;12.10;43.30;;;;;;5052105;28;20186;-67
2023/05/03 02:21:49;;;;;;;2.30;1.27;;;12.40;42.60;;;;;;5053303;28;20604;-67
2023/05/03 02:24:15;;;;;;;2.50;1.40;;;12.30;42.20;;;;;;5045188;28;20424;-67
2023/05/03 02:26:41;;;;;;;2.50;1.57;;;12.40;42.40;;;;;;5052955;28;20290;-67
2023/05/03 02:29:07;;;;;;;2.23;1.20;;;12.60;43.20;;;;;;5039702;28;20485;-68
2023/05/03 02:31:32;;;;;;;2.70;1.47;;;12.30;43.20;;;;;;5052236;28;20214;-67
2023/05/03 02:33:58;;;;;;;2.57;1.47;;;12.40;42.60;;;;;;5052524;28;20474;-70
2023/05/03 02:36:24;;;;;;;2.27;1.20;;;12.20;42.80;;;;;;5053656;28;20238;-67
2023/05/03 02:38:49;;;;;;;2.27;1.20;;;12.30;42.50;;;;;;5052175;28;20200;-68
2023/05/03 02:41:15;;;;;;;2.20;1.20;;;12.40;43.00;;;;;;5053582;28;20191;-67
2023/05/03 02:43:41;;;;;;;2.30;1.27;;;12.30;42.80;;;;;;5052823;28;20191;-67
2023/05/03 02:46:06;;;;;;;2.70;1.70;;;12.30;43.00;;;;;;5052671;28;20264;-69
2023/05/03 02:48:32;;;;;;;2.77;1.47;;;12.30;42.40;;;;;;5044892;28;20564;-67
2023/05/03 02:50:57;;;;;;;2.93;1.73;;;12.30;42.50;;;;;;5052521;28;20275;-67
2023/05/03 02:53:23;;;;;;;4.60;1.70;;;12.30;42.60;;;;;;5052290;28;20184;-67
2023/05/03 02:55:49;;;;;;;2.30;1.20;;;12.30;42.60;;;;;;5053231;28;20179;-68
2023/05/03 02:58:15;;;;;;;3.75;1.70;;;12.40;42.30;;;;;;5052660;28;20207;-69
2023/05/03 03:00:40;;;;;;;2.30;1.30;;;12.30;41.90;;;;;;5048724;28;20188;-70
2023/05/03 03:03:06;;;;;;;2.60;1.37;;;12.70;42.60;;;;;;5039298;28;20463;-67
2023/05/03 03:05:32;;;;;;;2.40;1.20;;;12.30;42.10;;;;;;5053344;28;20167;-67
2023/05/03 03:07:58;;;;;;;4.60;1.97;;;12.20;42.90;;;;;;5053213;28;20201;-67
2023/05/03 03:10:23;;;;;;;2.40;1.30;;;12.10;42.50;;;;;;5050804;28;20183;-67
2023/05/03 03:12:49;;;;;;;3.60;2.27;;;12.40;43.20;;;;;;5049572;28;20609;-70
2023/05/03 03:15:14;;;;;;;3.93;1.63;;;12.20;42.60;;;;;;5052129;28;20685;-67
2023/05/03 03:17:40;;;;;;;4.60;2.23;;;12.40;42.50;;;;;;5044348;28;20214;-67
2023/05/03 03:20:10;;;;;;;2.30;1.30;;;12.10;42.60;;;;;;5051180;28;20178;-67
2023/05/03 03:22:36;;;;;;;2.30;1.20;;;11.90;41.80;;;;;;5045662;28;20185;-67
2023/05/03 03:25:03;;;;;;;2.25;1.10;;;12.00;41.70;;;;;;5051639;28;20185;-67
2023/05/03 03:27:29;;;;;;;6.72;3.42;;;12.00;41.70;;;;;;5043433;28;20235;-67
2023/05/03 03:29:55;;;;;;;2.40;1.30;;;11.90;42.70;;;;;;5043950;28;20176;-70
2023/05/03 03:32:20;;;;;;;3.23;1.87;;;12.00;43.10;;;;;;5049399;28;20194;-67
2023/05/03 03:34:46;;;;;;;2.20;1.10;;;12.00;41.80;;;;;;5044745;28;20269;-67
2023/05/03 03:37:12;;;;;;;2.20;1.20;;;11.80;42.60;;;;;;5052225;28;20249;-67
2023/05/03 03:39:38;;;;;;;2.40;1.27;;;11.80;42.50;;;;;;5052223;28;20186;-71
2023/05/03 03:42:05;;;;;;;2.38;1.30;;;11.70;42.80;;;;;;5049948;28;20226;-69
2023/05/03 03:44:31;;;;;;;2.50;1.40;;;11.80;42.60;;;;;;5050193;28;20200;-69
2023/05/03 03:46:56;;;;;;;2.30;1.10;;;12.10;43.30;;;;;;5052043;28;20261;-69
2023/05/03 03:49:22;;;;;;;3.60;2.37;;;11.50;43.10;;;;;;5052485;28;20175;-69
2023/05/03 03:51:47;;;;;;;3.53;1.77;;;11.40;43.60;;;;;;5051111;28;20683;-69
2023/05/03 03:54:13;;;;;;;3.00;1.93;;;11.40;44.70;;;;;;5048038;28;20194;-67
2023/05/03 03:56:39;;;;;;;2.57;1.47;;;11.40;43.80;;;;;;5051653;28;20206;-67
2023/05/03 03:59:05;;;;;;;2.50;1.30;;;11.40;43.40;;;;;;5051950;28;20430;-69
2023/05/03 04:01:30;;;;;;;2.30;1.37;;;11.40;43.20;;;;;;5050332;28;20211;-70
2023/05/03 04:03:56;;;;;;;2.67;1.30;;;11.40;43.80;;;;;;5045534;28;20430;-68
2023/05/03 04:06:22;;;;;;;3.43;1.30;;;11.50;43.20;;;;;;5051529;28;20283;-66
2023/05/03 04:08:47;;;;;;;3.00;1.50;;;11.30;43.40;;;;;;5051692;28;20233;-67
2023/05/03 04:11:13;;;;;;;3.33;1.73;;;11.30;44.70;;;;;;5051735;28;20552;-67
2023/05/03 04:13:39;;;;;;;2.50;1.30;;;11.40;45.60;;;;;;5047961;28;20187;-68
2023/05/03 04:16:08;;;;;;;2.70;1.50;;;11.60;45.40;;;;;;5051349;28;20808;-66
2023/05/03 04:18:34;;;;;;;2.78;1.48;;;12.00;45.10;;;;;;5048713;28;20697;-67
2023/05/03 04:20:59;;;;;;;2.50;1.20;;;11.80;44.90;;;;;;5044859;28;20190;-67
2023/05/03 04:23:25;;;;;;;2.50;1.20;;;12.40;45.00;;;;;;5048720;28;20949;-68
2023/05/03 04:25:51;;;;;;;2.80;1.40;;;12.00;44.00;;;;;;5047303;28;20188;-67
2023/05/03 04:28:17;;;;;;;4.57;2.17;;;12.10;43.80;;;;;;5042046;28;20714;-67
2023/05/03 04:30:46;;;;;;;2.70;1.30;;;12.10;44.80;;;;;;5033426;28;20264;-69
2023/05/03 04:33:12;;;;;;;3.05;1.65;;;12.10;45.90;;;;;;5044611;28;20184;-67
2023/05/03 04:35:39;;;;;;;2.90;1.52;;;12.20;45.20;;;;;;5041934;28;20164;-67
2023/05/03 04:38:04;;;;;;;2.50;1.40;;;12.30;44.40;;;;;;5041389;28;20262;-70
2023/05/03 04:40:30;;;;;;;2.60;1.30;;;12.30;44.70;;;;;;5038834;28;20400;-68
2023/05/03 04:42:56;;;;;;;3.10;1.83;;;12.40;43.30;;;;;;5044143;28;20226;-67
2023/05/03 04:45:22;;;;;;;3.60;1.43;;;12.90;43.40;;;;;;5044541;28;20178;-67
2023/05/03 04:47:48;;;;;;;2.73;1.47;;;12.60;43.40;;;;;;5041646;28;20421;-67
2023/05/03 04:50:14;;;;;;;2.33;1.20;;;12.60;42.60;;;;;;5038565;28;20398;-67
2023/05/03 04:52:40;;;;;;;2.60;1.47;;;12.60;43.30;;;;;;5042687;28;20431;-70
2023/05/03 04:55:06;;;;;;;2.60;1.40;;;12.60;43.70;;;;;;5044020;28;20507;-67
2023/05/03 04:57:33;;;;;;;2.77;1.57;;;12.60;42.80;;;;;;5041690;28;20251;-70
2023/05/03 04:59:58;;;;;;;2.65;1.50;;;12.70;42.60;;;;;;5041607;28;20413;-70
2023/05/03 05:02:25;;;;;;;2.60;1.40;;;12.70;41.90;;;;;;5040183;28;20172;-69
2023/05/03 05:04:50;;;;;;;2.55;1.40;;;12.70;42.30;;;;;;5043683;28;20284;-70
2023/05/03 05:07:16;;;;;;;3.00;1.60;;;12.80;42.40;;;;;;5042706;28;20297;-70
2023/05/03 05:09:42;;;;;;;2.50;1.50;;;12.80;43.70;;;;;;5029118;28;20253;-70
2023/05/03 05:12:08;;;;;;;2.60;1.50;;;13.10;43.10;;;;;;5039218;28;20448;-70
2023/05/03 05:14:34;;;;;;;2.30;1.30;;;13.20;43.90;;;;;;5041760;28;20496;-70
2023/05/03 05:16:59;;;;;;;2.40;1.23;;;13.80;42.80;;;;;;5046557;28;20199;-69
2023/05/03 05:19:26;;;;;;;2.83;1.83;;;13.20;42.60;;;;;;5041671;28;20412;-70
2023/05/03 05:21:51;;;;;;;2.40;1.40;;;13.40;41.60;;;;;;5038709;28;20212;-70
2023/05/03 05:24:17;;;;;;;3.30;1.57;;;13.60;40.70;;;;;;5046219;28;20987;-70
2023/05/03 05:26:43;;;;;;;2.73;1.50;;;13.60;40.90;;;;;;5048983;28;21015;-70
2023/05/03 05:29:09;;;;;;;2.30;1.30;;;13.60;40.50;;;;;;5035399;28;20330;-70
2023/05/03 05:31:35;;;;;;;2.10;1.20;;;13.70;40.80;;;;;;5041117;28;20249;-69
2023/05/03 05:34:01;;;;;;;2.40;1.50;;;13.70;40.00;;;;;;5042048;28;20197;-70
2023/05/03 05:36:26;;;;;;;3.17;1.80;;;13.70;40.20;;;;;;5049686;28;20450;-69
2023/05/03 05:38:52;;;;;;;3.57;2.20;;;13.80;40.10;;;;;;5050573;28;20717;-70
2023/05/03 05:41:18;;;;;;;2.50;1.50;;;13.90;39.50;;;;;;5033095;28;20310;-70
2023/05/03 05:43:44;;;;;;;2.90;1.60;;;14.00;39.30;;;;;;5030239;28;20252;-70
2023/05/03 05:46:10;;;;;;;2.20;1.33;;;14.00;39.80;;;;;;5030862;28;20169;-70
2023/05/03 05:48:36;;;;;;;4.10;2.20;;;14.10;39.50;;;;;;5038112;28;20815;-70
2023/05/03 05:51:01;;;;;;;2.67;1.70;;;13.80;40.00;;;;;;5030683;28;20465;-70
2023/05/03 05:53:27;;;;;;;4.13;2.30;;;14.00;40.80;;;;;;5030137;28;20206;-70
2023/05/03 05:55:53;;;;;;;2.07;1.37;;;14.10;40.70;;;;;;5042090;28;20663;-70
2023/05/03 05:58:19;;;;;;;2.67;1.70;;;14.30;41.20;;;;;;5045388;28;20469;-71
2023/05/03 06:00:47;;;;;;;6.50;1.53;;;14.20;40.20;;;;;;5042939;28;20435;-69
2023/05/03 06:03:14;;;;;;;2.60;1.77;;;14.00;40.30;;;;;;5049094;28;20774;-70
2023/05/03 06:05:40;;;;;;;29.07;1.93;;;14.10;40.80;;;;;;5051340;28;20777;-70
2023/05/03 06:08:05;;;;;;;5.60;2.10;;;14.30;40.00;;;;;;5049729;28;20456;-69
2023/05/03 06:10:31;;;;;;;2.83;1.90;;;14.30;39.80;;;;;;5045288;28;20184;-70
2023/05/03 06:12:57;;;;;;;2.50;1.73;;;14.40;40.00;;;;;;5053471;28;20222;-70
2023/05/03 06:15:22;;;;;;;5.10;2.90;;;14.30;39.70;;;;;;5052778;28;20438;-70
2023/05/03 06:17:48;;;;;;;2.00;1.40;;;14.80;40.30;;;;;;5033895;28;20213;-70
2023/05/03 06:20:15;;;;;;;3.17;1.93;;;14.20;41.50;;;;;;5039986;28;20181;-69
2023/05/03 06:22:41;;;;;;;3.30;2.33;;;14.40;41.90;;;;;;5044818;28;20176;-69
2023/05/03 06:25:07;;;;;;;2.10;1.57;;;14.60;41.10;;;;;;5054137;28;20407;-69
2023/05/03 06:27:33;;;;;;;4.23;2.10;;;14.90;40.40;;;;;;5053832;28;20905;-70
2023/05/03 06:29:59;;;;;;;1.90;1.20;;;15.00;39.70;;;;;;5052447;28;20535;-69
2023/05/03 06:32:24;;;;;;;2.23;1.60;;;15.30;38.60;;;;;;5053516;28;20196;-70
2023/05/03 06:34:51;;;;;;;2.07;1.50;;;15.30;37.90;;;;;;5052554;28;20583;-72
2023/05/03 06:37:16;;;;;;;4.10;2.53;;;15.60;37.40;;;;;;5053391;28;20354;-70
2023/05/03 06:39:42;;;;;;;2.07;1.37;;;15.60;37.60;;;;;;5052567;28;21013;-69
2023/05/03 06:42:08;;;;;;;2.40;1.47;;;15.50;37.50;;;;;;5053016;28;20233;-66
2023/05/03 06:44:33;;;;;;;2.40;1.70;;;15.50;38.30;;;;;;5052024;28;20310;-67
2023/05/03 06:46:59;;;;;;;2.23;1.67;;;15.30;37.30;;;;;;5045576;28;20178;-67
2023/05/03 06:49:24;;;;;;;2.13;1.50;;;14.60;39.40;;;;;;5053059;28;20548;-67
2023/05/03 06:51:50;;;;;;;2.30;1.50;;;13.90;42.50;;;;;;5049837;28;20194;-67
2023/05/03 06:54:16;;;;;;;3.30;1.97;;;14.40;42.70;;;;;;5051239;28;20256;-67
2023/05/03 06:56:42;;;;;;;2.00;1.50;;;14.30;40.60;;;;;;5033532;28;20609;-67
2023/05/03 06:59:07;;;;;;;2.70;1.63;;;14.30;41.80;;;;;;5033300;28;20560;-66
2023/05/03 07:01:33;;;;;;;2.23;1.73;;;14.00;41.60;;;;;;5034533;28;20173;-67
2023/05/03 07:03:59;;;;;;;3.37;1.97;;;14.20;41.50;;;;;;5049756;28;20227;-67
2023/05/03 07:06:25;;;;;;;2.10;1.60;;;13.90;42.70;;;;;;5052875;28;20437;-67
2023/05/03 07:08:52;;;;;;;2.57;1.70;;;13.90;42.80;;;;;;5052822;28;20439;-69
2023/05/03 07:11:22;;;;;;;2.30;1.70;;;13.80;43.40;;;;;;5052397;28;20197;-67
2023/05/03 07:13:49;;;;;;;2.40;1.70;;;13.70;43.60;;;;;;5047976;28;20519;-66
2023/05/03 07:16:15;;;;;;;2.30;1.60;;;13.10;45.80;;;;;;5041300;28;20555;-69
2023/05/03 07:18:40;;;;;;;2.10;1.60;;;13.60;44.50;;;;;;5052430;28;20924;-66
2023/05/03 07:21:06;;;;;;;2.07;1.50;;;13.50;44.80;;;;;;5052823;28;20227;-66
2023/05/03 07:23:32;;;;;;;3.17;2.37;;;13.30;47.30;;;;;;5051530;28;20191;-67
2023/05/03 07:25:58;;;;;;;2.57;1.87;;;13.90;46.00;;;;;;5046992;28;20220;-68
2023/05/03 07:28:23;;;;;;;2.30;1.73;;;14.80;43.20;;;;;;5049136;28;20272;-67
2023/05/03 07:30:50;;;;;;;2.20;1.60;;;15.60;40.40;;;;;;5051927;28;20932;-69
2023/05/03 07:33:16;;;;;;;3.23;2.00;;;16.00;38.10;;;;;;5035665;28;20233;-67
2023/05/03 07:35:44;;;;;;;2.03;1.37;;;15.60;38.20;;;;;;5043841;28;20432;-67
2023/05/03 07:38:09;;;;;;;2.20;1.70;;;16.00;38.40;;;;;;5047566;28;20208;-67
2023/05/03 07:40:35;;;;;;;3.93;3.03;;;16.90;36.70;;;;;;5051959;28;20815;-67
2023/05/03 07:43:01;;;;;;;2.10;1.40;;;17.60;35.60;;;;;;5052328;28;20314;-67
2023/05/03 07:45:27;;;;;;;3.57;1.80;;;17.60;34.60;;;;;;5051498;28;20453;-67
2023/05/03 07:47:54;;;;;;;2.10;1.50;;;17.10;33.70;;;;;;5051216;28;20454;-67
2023/05/03 07:50:19;;;;;;;3.40;2.00;;;15.90;37.80;;;;;;5051813;28;20263;-67
2023/05/03 07:52:46;;;;;;;2.27;1.60;;;16.40;36.50;;;;;;5050453;28;20619;-73
2023/05/03 07:55:11;;;;;;;3.10;2.13;;;16.60;35.00;;;;;;5045056;28;20839;-73
2023/05/03 07:57:37;;;;;;;2.07;1.43;;;16.70;35.40;;;;;;5051862;28;20502;-73
2023/05/03 08:00:04;;;;;;;2.60;1.90;;;16.00;37.40;;;;;;5052332;28;20184;-74
2023/05/03 08:02:30;;;;;;;3.97;2.40;;;16.70;36.60;;;;;;5051067;28;20172;-75
2023/05/03 08:04:55;;;;;;;2.20;1.50;;;17.40;35.30;;;;;;5045427;28;20446;-70
2023/05/03 08:07:22;;;;;;;3.30;2.00;;;18.00;33.20;;;;;;5049238;28;20204;-69
2023/05/03 08:09:48;;;;;;;2.63;1.70;;;17.30;33.90;;;;;;5051771;28;20692;-69
2023/05/03 08:12:13;;;;;;;2.60;1.80;;;16.70;35.70;;;;;;5052604;28;20447;-70
2023/05/03 08:14:40;;;;;;;2.43;1.67;;;16.20;36.50;;;;;;5050295;28;20438;-70
2023/05/03 08:17:05;;;;;;;2.33;1.63;;;15.90;37.80;;;;;;5035789;28;20204;-69
2023/05/03 08:19:31;;;;;;;5.13;2.67;;;15.70;38.20;;;;;;5036642;28;20433;-70
2023/05/03 08:21:57;;;;;;;2.17;1.50;;;15.20;39.60;;;;;;5045715;28;20659;-70
2023/05/03 08:24:22;;;;;;;2.50;1.63;;;15.10;40.10;;;;;;5046144;28;20172;-69
2023/05/03 08:26:49;;;;;;;2.33;1.67;;;14.90;41.60;;;;;;5045533;28;20191;-69
2023/05/03 08:29:14;;;;;;;2.53;2.00;;;15.00;42.00;;;;;;5042789;28;20188;-68
2023/05/03 08:31:40;;;;;;;2.63;1.63;;;14.70;42.50;;;;;;5039350;28;20819;-68
2023/05/03 08:34:06;;;;;;;2.70;2.20;;;14.50;44.00;;;;;;5038032;28;20233;-68
2023/05/03 08:36:33;;;;;;;2.93;2.07;;;14.90;41.70;;;;;;5054183;28;20207;-68
2023/05/03 08:38:58;;;;;;;2.80;2.03;;;14.80;41.90;;;;;;5049279;28;20548;-68
2023/05/03 08:41:28;;;;;;;2.30;1.70;;;14.50;43.70;;;;;;5041409;28;20566;-69
2023/05/03 08:43:55;;;;;;;2.33;1.70;;;14.30;45.20;;;;;;5050546;28;20655;-69
2023/05/03 08:46:21;;;;;;;3.53;2.10;;;14.30;45.00;;;;;;5049442;28;20422;-70
2023/05/03 08:48:48;;;;;;;2.40;1.50;;;14.80;43.50;;;;;;5041079;28;20489;-69
2023/05/03 08:51:15;;;;;;;3.27;2.07;;;15.60;42.60;;;;;;5042259;28;20449;-69
2023/05/03 08:53:41;;;;;;;2.63;1.87;;;16.00;40.00;;;;;;5053519;28;20429;-69
2023/05/03 08:56:08;;;;;;;2.50;1.70;;;16.00;40.00;;;;;;5051471;28;20579;-69
2023/05/03 08:58:38;;;;;;;3.80;2.17;;;16.00;39.80;;;;;;5050693;28;20253;-70
2023/05/03 09:01:05;;;;;;;3.87;2.40;;;16.10;39.50;;;;;;5051005;28;21025;-69
2023/05/03 09:03:31;;;;;;;2.90;1.97;;;16.40;38.30;;;;;;5050370;28;20422;-70
2023/05/03 09:06:00;;;;;;;2.50;1.70;;;16.60;38.10;;;;;;5051191;28;20421;-69
2023/05/03 09:08:27;;;;;;;2.43;1.67;;;16.30;38.20;;;;;;5050530;28;20446;-70
2023/05/03 09:10:52;;;;;;;2.50;1.97;;;16.30;40.10;;;;;;5051387;28;20492;-69
2023/05/03 09:13:18;;;;;;;2.17;1.50;;;16.10;39.60;;;;;;5049895;28;20437;-70
2023/05/03 09:15:53;;;;;;;2.73;1.90;;;16.20;39.30;;;;;;5041307;28;20188;-69
2023/05/03 09:18:20;;;;;;;2.10;1.40;;;16.10;39.50;;;;;;5045254;28;20203;-69
2023/05/03 09:20:50;;;;;;;2.60;1.80;;;16.30;40.00;;;;;;5042418;28;20427;-69
2023/05/03 09:23:18;;;;;;;2.40;1.70;;;17.00;38.20;;;;;;5038515;28;20460;-70
2023/05/03 09:25:46;;;;;;;2.73;1.60;;;17.90;36.40;;;;;;5050789;28;20471;-69
2023/05/03 09:28:14;;;;;;;3.33;2.23;;;17.90;36.50;;;;;;5055807;28;20431;-69
2023/05/03 09:30:40;;;;;;;3.27;1.90;;;17.80;35.80;;;;;;5050331;28;20437;-70
2023/05/03 09:33:07;;;;;;;2.90;1.90;;;17.60;36.50;;;;;;5049358;28;20411;-69
2023/05/03 09:35:33;;;;;;;2.40;1.63;;;17.60;36.30;;;;;;5048526;28;20437;-69
2023/05/03 09:37:59;;;;;;;2.40;1.60;;;17.00;38.30;;;;;;5047906;28;20469;-70
2023/05/03 09:40:28;;;;;;;2.67;2.03;;;16.80;39.90;;;;;;5044411;28;20453;-69
2023/05/03 09:43:10;;;;;;;2.70;2.00;;;18.00;38.20;;;;;;5032848;28;20484;-70
2023/05/03 09:45:39;;;;;;;2.80;1.90;;;17.90;35.80;;;;;;5042842;28;20952;-69
2023/05/03 09:48:06;;;;;;;3.00;1.90;;;18.10;36.70;;;;;;5034473;28;20555;-70
2023/05/03 09:50:35;;;;;;;3.33;2.33;;;19.00;36.30;;;;;;5043281;28;20440;-70
2023/05/03 09:53:03;;;;;;;3.20;2.10;;;20.00;32.60;;;;;;5052596;28;20852;-69
2023/05/03 09:55:33;;;;;;;3.47;2.37;;;19.20;32.80;;;;;;5054136;28;20408;-69
2023/05/03 09:58:00;;;;;;;2.77;1.87;;;19.70;31.20;;;;;;5054478;28;20480;-69
2023/05/03 10:00:26;;;;;;;4.23;2.23;;;19.30;31.80;;;;;;5054023;28;20410;-70
2023/05/03 10:02:56;;;;;;;3.37;1.80;;;18.80;35.30;;;;;;5053852;28;20779;-69
2023/05/03 10:05:22;;;;;;;6.23;2.37;;;19.00;33.10;;;;;;5052754;28;20430;-70
2023/05/03 10:07:51;;;;;;;3.03;2.17;;;19.00;34.20;;;;;;5054419;28;20446;-70
2023/05/03 10:10:17;;;;;;;2.60;1.80;;;19.10;32.90;;;;;;5054340;28;20403;-69
2023/05/03 10:12:45;;;;;;;3.07;1.90;;;19.90;32.60;;;;;;5054097;28;20413;-69
2023/05/03 10:15:13;;;;;;;4.77;2.87;;;20.10;32.00;;;;;;5054342;28;20238;-72
2023/05/03 10:17:41;;;;;;;5.43;2.87;;;21.00;29.80;;;;;;5051650;28;20570;-69
2023/05/03 10:20:25;;;;;;;4.57;2.57;;;20.30;29.50;;;;;;5054784;28;20775;-70
2023/05/03 10:23:13;;;;;;;5.90;2.77;;;20.90;30.20;;;;;;5054235;28;20490;-69
2023/05/03 10:25:59;;;;;;;3.37;2.00;;;21.50;28.40;;;;;;5053855;28;20508;-70
2023/05/03 10:28:25;;;;;;;3.53;2.07;;;21.20;29.20;;;;;;5050919;28;20457;-69
2023/05/03 10:30:50;;;;;;;3.50;2.10;;;21.80;28.70;;;;;;5054001;28;20461;-70
2023/05/03 10:33:16;;;;;;;3.70;2.40;;;22.10;27.50;;;;;;5053167;28;20228;-70
2023/05/03 10:35:47;;;;;;;3.57;2.40;;;22.10;27.40;;;;;;5053901;28;20175;-70
2023/05/03 10:38:24;;;;;;;3.90;2.40;;;22.30;26.90;;;;;;5054183;28;20232;-69
2023/05/03 10:40:51;;;;;;;3.47;2.20;;;22.00;28.00;;;;;;5052436;28;20840;-69
2023/05/03 10:43:31;;;;;;;3.70;2.20;;;21.70;27.20;;;;;;5052508;28;20460;-71
2023/05/03 10:46:00;;;;;;;3.33;1.97;;;21.50;27.00;;;;;;5047620;28;20924;-70
2023/05/03 10:48:27;;;;;;;2.60;1.60;;;21.80;28.40;;;;;;5053715;28;20433;-70
2023/05/03 10:50:54;;;;;;;4.33;2.47;;;22.00;27.40;;;;;;5052282;28;20422;-70
2023/05/03 10:53:37;;;;;;;3.30;1.80;;;21.50;27.60;;;;;;5052080;28;20810;-69
2023/05/03 10:56:14;;;;;;;4.10;2.57;;;21.60;28.50;;;;;;5052815;28;20500;-70
2023/05/03 10:58:48;;;;;;;2.97;1.77;;;22.50;27.60;;;;;;5053423;28;20530;-69
2023/05/03 11:01:16;;;;;;;4.60;2.23;;;23.20;27.80;;;;;;5053463;28;20418;-70
2023/05/03 11:03:45;;;;;;;5.00;2.10;;;23.60;25.70;;;;;;5052656;28;20403;-70
2023/05/03 11:06:30;;;;;;;3.80;2.10;;;23.20;24.00;;;;;;5052047;28;20442;-70
2023/05/03 11:08:55;;;;;;;3.80;2.00;;;23.30;25.70;;;;;;5046880;28;20426;-70
2023/05/03 11:11:21;;;;;;;4.00;1.83;;;23.60;25.40;;;;;;5053122;28;20843;-71
2023/05/03 11:13:49;;;;;;;4.27;2.00;;;24.10;24.40;;;;;;5052586;28;20167;-69
2023/05/03 11:16:15;;;;;;;3.13;1.60;;;23.10;23.10;;;;;;5052283;28;20310;-70
2023/05/03 11:18:40;;;;;;;4.07;2.33;;;23.00;24.00;;;;;;5052637;28;20959;-70
2023/05/03 11:21:06;;;;;;;3.10;1.70;;;23.00;23.60;;;;;;5053176;28;20169;-70
2023/05/03 11:23:32;;;;;;;3.67;1.90;;;23.80;23.30;;;;;;5052458;28;20179;-70
2023/05/03 11:25:57;;;;;;;3.17;1.63;;;25.30;22.30;;;;;;5052556;28;20666;-70
2023/05/03 11:28:24;;;;;;;4.73;2.60;;;26.20;19.60;;;;;;5052085;28;20238;-70
2023/05/03 11:30:50;;;;;;;4.90;2.10;;;26.00;20.40;;;;;;5052723;28;20221;-71
2023/05/03 11:33:16;;;;;;;4.33;2.30;;;25.70;19.60;;;;;;5051834;28;20414;-71
2023/05/03 11:35:42;;;;;;;4.03;2.07;;;25.60;23.10;;;;;;5052544;28;20167;-70
2023/05/03 11:38:08;;;;;;;5.00;2.60;;;26.40;21.00;;;;;;5051840;28;20211;-70
2023/05/03 11:40:35;;;;;;;5.33;2.23;;;26.60;20.40;;;;;;5052391;28;20414;-70
2023/05/03 11:43:01;;;;;;;4.30;2.10;;;27.40;19.00;;;;;;5052180;28;20818;-70
2023/05/03 11:45:37;;;;;;;4.60;2.50;;;26.70;18.20;;;;;;5052585;28;20402;-70
2023/05/03 11:48:03;;;;;;;4.00;1.90;;;27.60;18.10;;;;;;5051216;28;20256;-70
2023/05/03 11:50:54;;;;;;;4.67;1.97;;;29.10;17.60;;;;;;5052219;28;20422;-70
2023/05/03 11:53:22;;;;;;;5.33;2.53;;;28.70;17.80;;;;;;5050623;28;20180;-70
2023/05/03 11:55:49;;;;;;;5.07;2.00;;;28.60;18.40;;;;;;5052395;28;20458;-70
2023/05/03 11:58:17;;;;;;;5.00;2.10;;;29.20;16.10;;;;;;5051358;28;20531;-70
2023/05/03 12:00:47;;;;;;;3.73;1.60;;;29.60;16.00;;;;;;5044157;28;20505;-70
2023/05/03 12:03:31;;;;;;;3.93;1.97;;;28.40;17.10;;;;;;5051772;28;20406;-70
2023/05/03 12:05:57;;;;;;;3.87;1.87;;;27.40;17.60;;;;;;5051340;28;20390;-70
2023/05/03 12:08:31;;;;;;;3.60;1.87;;;27.50;18.70;;;;;;5051279;28;20461;-70
2023/05/03 12:10:57;;;;;;;3.47;1.70;;;28.90;17.30;;;;;;5050901;28;20414;-71
2023/05/03 12:13:26;;;;;;;5.83;1.97;;;29.70;17.00;;;;;;5051007;28;20441;-70
2023/05/03 12:15:58;;;;;;;4.40;1.80;;;29.30;15.20;;;;;;5052540;28;20419;-72
2023/05/03 12:18:24;;;;;;;3.80;1.60;;;29.30;17.20;;;;;;5052422;28;20510;-71
2023/05/03 12:20:58;;;;;;;4.40;1.60;;;29.70;15.60;;;;;;5051790;28;20426;-70
2023/05/03 12:23:25;;;;;;;4.67;2.00;;;29.80;17.90;;;;;;5051027;28;20763;-71
2023/05/03 12:25:51;;;;;;;4.50;1.97;;;31.30;13.60;;;;;;5052192;28;20473;-68
2023/05/03 12:28:17;;;;;;;4.20;1.60;;;32.30;14.00;;;;;;5052150;28;20458;-68
2023/05/03 12:30:43;;;;;;;4.57;2.00;;;32.80;11.60;;;;;;5051318;28;20465;-68
2023/05/03 12:33:09;;;;;;;4.33;1.60;;;32.60;10.70;;;;;;5052201;28;20414;-68
2023/05/03 12:35:35;;;;;;;4.47;1.90;;;31.90;11.40;;;;;;5051536;28;20787;-68
2023/05/03 12:38:07;;;;;;;4.10;1.40;;;30.40;11.70;;;;;;5050617;28;20254;-70
2023/05/03 12:40:32;;;;;;;4.67;1.93;;;29.70;13.60;;;;;;5051664;28;20438;-70
2023/05/03 12:42:58;;;;;;;4.43;1.50;;;30.20;13.40;;;;;;5051119;28;20910;-69
2023/05/03 12:45:26;;;;;;;4.40;1.67;;;31.20;10.80;;;;;;5050712;28;20187;-69